createdAt,value
2023-03-31T00:01:35.250Z,19.10
2023-03-31T00:04:24.686Z,16.40
2023-03-31T00:07:09.824Z,15.70
2023-03-31T00:10:15.961Z,18.60
2023-03-31T00:13:01.404Z,14.60
2023-03-31T00:15:46.167Z,11.70
2023-03-31T00:18:30.061Z,18.50
2023-03-31T00:21:25.224Z,11.50
2023-03-31T00:24:11.900Z,15.70
2023-03-31T00:26:55.458Z,15.50
2023-03-31T00:29:41.665Z,15.60
2023-03-31T00:32:25.481Z,12.70
2023-03-31T00:35:09.202Z,15.90
2023-03-31T00:37:53.971Z,14.20
2023-03-31T00:40:37.112Z,15.30
2023-03-31T00:43:35.832Z,16.90
2023-03-31T00:46:25.330Z,14.80
2023-03-31T00:49:16.911Z,16.10
2023-03-31T00:52:22.042Z,13.20
2023-03-31T00:55:10.925Z,21.40
2023-03-31T00:57:55.354Z,19.00
2023-03-31T01:00:39.695Z,17.90
2023-03-31T01:03:26.815Z,15.10
2023-03-31T01:06:37.929Z,17.10
2023-03-31T01:09:22.891Z,13.90
2023-03-31T01:12:11.432Z,17.40
2023-03-31T01:15:11.524Z,16.90
2023-03-31T01:18:21.299Z,18.60
2023-03-31T01:21:31.041Z,15.00
2023-03-31T01:24:35.736Z,20.50
2023-03-31T01:27:46.060Z,17.90
2023-03-31T01:30:31.728Z,18.40
2023-03-31T01:33:36.223Z,18.90
2023-03-31T01:36:49.980Z,14.20
2023-03-31T01:40:14.473Z,19.00
2023-03-31T01:43:19.299Z,17.70
2023-03-31T01:46:33.166Z,15.70
2023-03-31T01:49:24.138Z,17.50
2023-03-31T01:52:09.374Z,14.40
2023-03-31T01:55:04.524Z,15.70
2023-03-31T01:57:57.451Z,17.90
2023-03-31T02:03:37.997Z,17.70
2023-03-31T02:06:25.840Z,17.30
2023-03-31T02:09:14.956Z,16.40
2023-03-31T02:12:00.230Z,14.60
2023-03-31T02:14:48.097Z,19.20
2023-03-31T02:17:32.789Z,20.50
2023-03-31T02:20:19.314Z,16.00
2023-03-31T02:23:02.736Z,17.40
2023-03-31T02:25:52.992Z,13.80
2023-03-31T02:28:37.529Z,15.70
2023-03-31T02:32:08.391Z,17.00
2023-03-31T02:34:51.488Z,17.20
2023-03-31T02:37:34.603Z,17.40
2023-03-31T02:40:21.777Z,15.50
2023-03-31T02:43:05.109Z,17.10
2023-03-31T02:45:51.150Z,15.30
2023-03-31T02:48:39.066Z,14.10
2023-03-31T02:51:59.382Z,16.10
2023-03-31T02:55:00.622Z,11.20
2023-03-31T02:57:58.791Z,16.90
2023-03-31T03:00:52.769Z,13.90
2023-03-31T03:04:17.760Z,11.60
2023-03-31T03:07:06.863Z,17.70
2023-03-31T03:09:59.678Z,11.20
2023-03-31T03:15:44.664Z,15.90
2023-03-31T03:18:27.645Z,17.20
2023-03-31T03:21:10.665Z,16.10
2023-03-31T03:23:54.968Z,14.00
2023-03-31T03:26:37.871Z,10.80
2023-03-31T03:29:20.761Z,10.30
2023-03-31T03:32:03.677Z,12.00
2023-03-31T03:34:46.627Z,12.30
2023-03-31T03:37:30.798Z,11.50
2023-03-31T03:40:13.875Z,12.10
2023-03-31T03:42:56.774Z,11.00
2023-03-31T03:45:39.666Z,9.10
2023-03-31T03:48:22.609Z,10.20
2023-03-31T03:51:06.594Z,8.70
2023-03-31T03:53:49.838Z,13.10
2023-03-31T03:56:32.836Z,10.50
2023-03-31T03:59:15.753Z,7.50
2023-03-31T04:01:58.756Z,17.30
2023-03-31T04:04:41.669Z,9.00
2023-03-31T04:07:24.570Z,12.50
2023-03-31T04:10:08.319Z,9.40
2023-03-31T04:12:51.165Z,11.30
2023-03-31T04:15:34.040Z,14.10
2023-03-31T04:18:25.853Z,11.50
2023-03-31T04:21:22.934Z,9.10
2023-03-31T04:24:06.500Z,11.30
2023-03-31T04:26:51.112Z,12.50
2023-03-31T04:29:34.121Z,12.00
2023-03-31T04:32:21.706Z,10.60
2023-03-31T04:35:05.139Z,13.00
2023-03-31T04:37:49.070Z,11.00
2023-03-31T04:40:32.011Z,15.30
2023-03-31T04:43:15.683Z,10.50
2023-03-31T04:45:59.230Z,12.00
2023-03-31T04:48:42.430Z,12.40
2023-03-31T04:51:25.350Z,10.80
2023-03-31T04:54:08.875Z,11.50
2023-03-31T04:56:51.864Z,12.00
2023-03-31T04:59:34.842Z,9.10
2023-03-31T05:02:25.264Z,12.40
2023-03-31T05:05:11.499Z,8.70
2023-03-31T05:07:54.604Z,10.60
2023-03-31T05:10:38.566Z,9.40
2023-03-31T05:13:21.503Z,14.90
2023-03-31T05:16:21.057Z,15.10
2023-03-31T05:19:06.257Z,8.20
2023-03-31T05:21:50.271Z,8.20
2023-03-31T05:24:33.708Z,9.80
2023-03-31T05:27:17.952Z,8.00
2023-03-31T05:30:12.344Z,10.30
2023-03-31T05:32:58.778Z,10.40
2023-03-31T05:35:44.766Z,12.70
2023-03-31T05:38:32.006Z,6.10
2023-03-31T05:41:17.536Z,9.60
2023-03-31T05:44:02.206Z,8.00
2023-03-31T05:47:11.267Z,13.00
2023-03-31T05:50:09.693Z,9.50
2023-03-31T05:53:10.449Z,7.80
2023-03-31T05:56:44.099Z,12.90
2023-03-31T05:59:39.422Z,12.00
2023-03-31T06:02:31.179Z,10.50
2023-03-31T06:05:23.007Z,12.60
2023-03-31T06:08:16.047Z,11.40
2023-03-31T06:11:14.813Z,7.50
2023-03-31T06:13:58.851Z,9.60
2023-03-31T06:16:51.506Z,11.00
2023-03-31T06:19:40.580Z,9.20
2023-03-31T06:22:24.100Z,7.40
2023-03-31T06:25:07.496Z,9.10
2023-03-31T06:27:53.891Z,15.80
2023-03-31T06:30:37.468Z,11.00
2023-03-31T06:33:20.696Z,7.10
2023-03-31T06:36:05.724Z,11.50
2023-03-31T06:38:50.224Z,11.50
2023-03-31T06:41:33.314Z,11.40
2023-03-31T06:44:17.349Z,10.40
2023-03-31T06:47:00.474Z,7.60
2023-03-31T06:49:43.591Z,9.00
2023-03-31T06:52:29.346Z,8.50
2023-03-31T06:55:13.533Z,9.90
2023-03-31T06:57:56.596Z,9.20
2023-03-31T07:00:42.215Z,10.10
2023-03-31T07:03:25.516Z,6.60
2023-03-31T07:06:08.495Z,8.90
2023-03-31T07:08:52.043Z,10.00
2023-03-31T07:11:41.821Z,7.90
2023-03-31T07:14:25.900Z,9.60
2023-03-31T07:17:09.335Z,10.40
2023-03-31T07:19:56.111Z,9.90
2023-03-31T07:22:42.695Z,9.10
2023-03-31T07:25:28.098Z,8.50
2023-03-31T07:28:11.442Z,7.40
2023-03-31T07:30:54.503Z,7.00
2023-03-31T07:33:48.996Z,5.70
2023-03-31T07:37:05.067Z,11.70
2023-03-31T07:40:15.622Z,12.50
2023-03-31T07:43:23.820Z,6.30
2023-03-31T07:46:25.630Z,10.00
2023-03-31T07:49:22.596Z,7.80
2023-03-31T07:52:11.499Z,9.10
2023-03-31T07:54:54.766Z,11.40
2023-03-31T07:57:38.398Z,10.60
2023-03-31T08:00:22.569Z,10.60
2023-03-31T08:03:09.422Z,7.50
2023-03-31T08:05:52.956Z,10.50
2023-03-31T08:08:38.547Z,8.00
2023-03-31T08:11:21.926Z,11.50
2023-03-31T08:14:04.900Z,10.10
2023-03-31T08:16:53.393Z,10.90
2023-03-31T08:19:36.339Z,8.80
2023-03-31T08:22:19.352Z,12.80
2023-03-31T08:25:02.917Z,9.50
2023-03-31T08:27:46.716Z,12.90
2023-03-31T08:30:33.797Z,7.90
2023-03-31T08:33:21.130Z,9.40
2023-03-31T08:36:09.009Z,9.60
2023-03-31T08:38:52.158Z,10.40
2023-03-31T08:41:44.266Z,6.70
2023-03-31T08:44:32.353Z,10.70
2023-03-31T08:47:21.625Z,13.20
2023-03-31T08:50:27.252Z,7.00
2023-03-31T08:53:19.772Z,7.50
2023-03-31T08:56:07.852Z,10.90
2023-03-31T08:58:52.541Z,13.30
2023-03-31T09:02:10.592Z,7.60
2023-03-31T09:04:59.588Z,12.50
2023-03-31T09:08:20.366Z,10.70
2023-03-31T09:11:34.358Z,10.10
2023-03-31T09:14:32.396Z,8.70
2023-03-31T09:17:31.844Z,8.60
2023-03-31T09:20:21.924Z,4.80
2023-03-31T09:23:29.360Z,7.90
2023-03-31T09:26:32.361Z,11.10
2023-03-31T09:30:00.033Z,8.30
2023-03-31T09:32:44.337Z,9.80
2023-03-31T09:35:27.674Z,15.10
2023-03-31T09:38:16.009Z,10.20
2023-03-31T09:41:01.847Z,8.30
2023-03-31T09:43:49.781Z,13.80
2023-03-31T09:46:37.751Z,8.50
2023-03-31T09:49:27.511Z,9.60
2023-03-31T09:52:21.269Z,11.80
2023-03-31T09:55:20.631Z,11.50
2023-03-31T09:58:17.013Z,9.40
2023-03-31T10:01:04.184Z,8.60
2023-03-31T10:03:54.200Z,11.50
2023-03-31T10:06:42.335Z,9.80
2023-03-31T10:09:30.282Z,9.40
2023-03-31T10:12:24.694Z,7.60
2023-03-31T10:15:37.871Z,10.20
2023-03-31T10:18:32.477Z,12.20
2023-03-31T10:21:26.216Z,12.00
2023-03-31T10:24:11.082Z,11.40
2023-03-31T10:26:57.759Z,10.30
2023-03-31T10:29:42.646Z,11.10
2023-03-31T10:32:31.708Z,8.90
2023-03-31T10:35:49.104Z,5.80
2023-03-31T10:38:37.586Z,8.90
2023-03-31T10:41:29.424Z,7.80
2023-03-31T10:44:30.776Z,10.70
2023-03-31T10:47:14.350Z,10.60
2023-03-31T10:49:58.100Z,10.90
2023-03-31T10:52:49.387Z,9.60
2023-03-31T10:55:42.163Z,8.40
2023-03-31T10:59:05.718Z,11.10
2023-03-31T11:02:10.101Z,12.00
2023-03-31T11:04:58.929Z,14.00
2023-03-31T11:08:11.661Z,11.10
2023-03-31T11:14:10.317Z,11.20
2023-03-31T11:17:02.475Z,9.70
2023-03-31T11:20:15.967Z,9.00
2023-03-31T11:23:22.421Z,9.40
2023-03-31T11:26:18.934Z,9.70
2023-03-31T11:29:32.899Z,13.20
2023-03-31T11:32:51.261Z,9.70
2023-03-31T11:35:54.605Z,6.90
2023-03-31T11:39:17.330Z,9.50
2023-03-31T11:42:08.019Z,7.30
2023-03-31T11:45:14.640Z,7.40
2023-03-31T11:48:06.237Z,7.00
2023-03-31T11:50:51.629Z,9.70
2023-03-31T11:53:37.527Z,10.70
2023-03-31T11:56:22.816Z,9.10
2023-03-31T11:59:07.328Z,8.30
2023-03-31T12:01:57.831Z,10.70
2023-03-31T12:04:45.420Z,12.50
2023-03-31T12:07:55.060Z,9.40
2023-03-31T12:10:41.792Z,11.90
2023-03-31T12:13:44.129Z,8.30
2023-03-31T12:16:37.548Z,10.40
2023-03-31T12:19:28.124Z,6.50
2023-03-31T12:22:19.539Z,8.90
2023-03-31T12:25:03.143Z,10.90
2023-03-31T12:27:50.562Z,12.80
2023-03-31T12:30:39.384Z,9.50
2023-03-31T12:33:30.831Z,14.00
2023-03-31T12:36:36.353Z,9.40
2023-03-31T12:39:47.915Z,8.50
2023-03-31T12:42:54.815Z,12.20
2023-03-31T12:45:47.842Z,14.10
2023-03-31T12:48:58.854Z,13.50
2023-03-31T12:51:46.740Z,13.90
2023-03-31T12:55:06.206Z,16.40
2023-03-31T12:58:32.505Z,10.50
2023-03-31T13:01:23.908Z,10.70
2023-03-31T13:04:21.727Z,12.50
2023-03-31T13:07:14.594Z,9.80
2023-03-31T13:10:21.840Z,12.30
2023-03-31T13:13:14.010Z,10.90
2023-03-31T13:18:51.881Z,12.20
2023-03-31T13:21:54.271Z,12.60
2023-03-31T13:24:37.389Z,10.00
2023-03-31T13:27:34.934Z,11.20
2023-03-31T13:30:36.937Z,9.70
2023-03-31T13:33:39.580Z,10.30
2023-03-31T13:36:34.907Z,14.10
2023-03-31T13:39:27.133Z,8.70
2023-03-31T13:42:32.006Z,11.10
2023-03-31T13:45:33.724Z,9.70
2023-03-31T13:48:37.972Z,10.10
2023-03-31T13:51:38.940Z,9.90
2023-03-31T13:54:40.496Z,10.80
2023-03-31T13:57:29.636Z,12.60
2023-03-31T14:00:25.257Z,10.60
2023-03-31T14:03:22.953Z,12.60
2023-03-31T14:06:17.259Z,11.70
2023-03-31T14:09:31.082Z,9.70
2023-03-31T14:12:36.961Z,10.40
2023-03-31T14:15:22.455Z,10.50
2023-03-31T14:18:07.600Z,10.40
2023-03-31T14:21:13.702Z,9.90
2023-03-31T14:24:16.999Z,9.60
2023-03-31T14:27:06.097Z,9.20
2023-03-31T14:30:25.010Z,10.10
2023-03-31T14:33:39.306Z,10.80
2023-03-31T14:36:28.546Z,9.80
2023-03-31T14:39:13.326Z,11.70
2023-03-31T14:42:06.055Z,14.10
2023-03-31T14:44:49.708Z,9.30
2023-03-31T14:47:32.832Z,9.90
2023-03-31T14:50:22.127Z,11.60
2023-03-31T14:53:13.698Z,12.40
2023-03-31T14:56:20.859Z,18.70
2023-03-31T14:59:06.387Z,9.50
2023-03-31T15:11:02.421Z,5.80
2023-03-31T15:14:38.581Z,3.90
2023-03-31T15:17:37.607Z,4.80
2023-03-31T15:20:52.922Z,5.70
2023-03-31T15:24:17.736Z,5.60
2023-03-31T15:27:09.473Z,8.00
2023-03-31T15:30:22.097Z,8.60
2023-03-31T15:33:41.805Z,11.60
2023-03-31T15:36:32.049Z,11.40
2023-03-31T15:39:50.046Z,7.70
2023-03-31T15:42:37.078Z,13.50
2023-03-31T15:45:40.940Z,11.00
2023-03-31T15:48:39.953Z,11.60
2023-03-31T15:51:49.547Z,11.90
2023-03-31T15:54:56.731Z,13.00
2023-03-31T15:57:55.927Z,17.20
2023-03-31T16:01:11.910Z,18.20
2023-03-31T16:03:56.555Z,16.40
2023-03-31T16:06:54.478Z,20.10
2023-03-31T16:10:23.237Z,17.10
2023-03-31T16:13:09.568Z,17.90
2023-03-31T16:16:15.650Z,18.80
2023-03-31T16:19:34.013Z,22.90
2023-03-31T16:23:04.078Z,21.30
2023-03-31T16:26:31.941Z,21.50
2023-03-31T16:30:08.768Z,22.00
2023-03-31T16:33:29.892Z,21.70
2023-03-31T16:36:16.223Z,21.10
2023-03-31T16:39:03.078Z,20.80
2023-03-31T16:42:11.733Z,21.10
2023-03-31T16:45:14.671Z,21.20
2023-03-31T16:48:30.207Z,23.00
2023-03-31T16:51:18.021Z,22.90
2023-03-31T16:55:10.755Z,19.90
2023-03-31T16:58:05.767Z,20.30
2023-03-31T17:01:31.375Z,24.70
2023-03-31T17:05:12.437Z,21.70
2023-03-31T17:08:37.327Z,15.30
2023-03-31T17:11:51.195Z,16.40
2023-03-31T17:15:18.188Z,18.30
2023-03-31T17:18:15.069Z,13.80
2023-03-31T17:21:28.208Z,15.70
2023-03-31T17:24:20.569Z,14.90
2023-03-31T17:27:32.043Z,12.60
2023-03-31T17:30:21.915Z,15.80
2023-03-31T17:33:38.537Z,13.50
2023-03-31T17:36:27.217Z,14.90
2023-03-31T17:39:50.760Z,14.40
2023-03-31T17:42:34.347Z,15.00
2023-03-31T17:45:25.574Z,16.20
2023-03-31T17:48:34.231Z,15.30
2023-03-31T17:51:49.126Z,16.30
2023-03-31T17:55:05.382Z,15.00
2023-03-31T17:58:22.574Z,15.80
2023-03-31T18:01:56.277Z,17.50
2023-03-31T18:05:12.507Z,15.50
2023-03-31T18:08:19.204Z,14.40
2023-03-31T18:11:58.906Z,17.50
2023-03-31T18:15:05.866Z,14.90
2023-03-31T18:18:19.482Z,17.40
2023-03-31T18:21:13.461Z,16.00
2023-03-31T18:24:19.291Z,21.90
2023-03-31T18:27:09.382Z,20.10
2023-03-31T18:30:33.846Z,20.70
2023-03-31T18:34:07.800Z,21.20
2023-03-31T18:36:59.710Z,15.60
2023-03-31T18:40:33.088Z,18.60
2023-03-31T18:43:59.011Z,18.20
2023-03-31T18:47:18.512Z,18.20
2023-03-31T18:50:30.720Z,19.50
2023-03-31T18:53:36.657Z,21.00
2023-03-31T18:56:25.937Z,20.10
2023-03-31T18:59:42.752Z,18.90
2023-03-31T19:02:49.176Z,21.20
2023-03-31T19:06:24.087Z,18.80
2023-03-31T19:09:39.312Z,20.30
2023-03-31T19:13:07.767Z,21.10
2023-03-31T19:16:09.439Z,21.00
2023-03-31T19:19:30.904Z,22.60
2023-03-31T19:22:30.890Z,21.70
2023-03-31T19:25:55.602Z,19.70
2023-03-31T19:28:42.507Z,24.30
2023-03-31T19:31:52.874Z,21.10
2023-03-31T19:34:52.317Z,23.50
2023-03-31T19:37:51.595Z,22.30
2023-03-31T19:41:10.968Z,22.70
2023-03-31T19:44:35.946Z,21.60
2023-03-31T19:47:38.870Z,25.80
2023-03-31T19:51:26.311Z,25.90
2023-03-31T19:54:15.978Z,26.00
2023-03-31T19:57:10.267Z,24.70
2023-03-31T19:59:56.638Z,24.50
2023-03-31T20:03:10.719Z,25.60
2023-03-31T20:06:28.875Z,30.90
2023-03-31T20:09:32.922Z,25.50
2023-03-31T20:12:22.278Z,27.70
2023-03-31T20:15:15.902Z,26.10
2023-03-31T20:18:33.428Z,26.50
2023-03-31T20:21:39.168Z,25.20
2023-03-31T20:24:52.031Z,27.10
2023-03-31T20:27:38.616Z,30.30
2023-03-31T20:30:59.340Z,27.90
2023-03-31T20:34:29.554Z,27.00
2023-03-31T20:37:33.374Z,27.00
2023-03-31T20:40:20.821Z,26.50
2023-03-31T20:43:29.379Z,25.80
2023-03-31T20:46:36.177Z,25.90
2023-03-31T20:50:04.155Z,26.70
2023-03-31T20:53:07.914Z,25.70
2023-03-31T20:56:04.749Z,28.70
2023-03-31T20:59:00.389Z,28.60
2023-03-31T21:02:01.014Z,26.30
2023-03-31T21:05:25.521Z,27.10
2023-03-31T21:08:17.865Z,25.90
2023-03-31T21:11:11.709Z,25.50
2023-03-31T21:14:15.372Z,24.20
2023-03-31T21:17:26.957Z,24.70
2023-03-31T21:20:23.289Z,25.40
2023-03-31T21:23:18.374Z,22.50
2023-03-31T21:26:06.403Z,28.10
2023-03-31T21:28:54.874Z,21.60
2023-03-31T21:31:58.509Z,25.40
2023-03-31T21:34:42.302Z,24.90
2023-03-31T21:37:27.956Z,20.40
2023-03-31T21:40:26.024Z,23.40
2023-03-31T21:43:15.142Z,21.70
2023-03-31T21:46:02.069Z,22.50
2023-03-31T21:49:11.924Z,23.80
2023-03-31T21:52:01.264Z,23.20
2023-03-31T21:54:53.145Z,20.80
2023-03-31T21:57:55.234Z,19.60
2023-03-31T22:00:44.028Z,20.00
2023-03-31T22:03:41.093Z,19.90
2023-03-31T22:06:29.757Z,19.40
2023-03-31T22:09:30.004Z,17.00
2023-03-31T22:12:22.408Z,19.30
2023-03-31T22:15:21.570Z,16.30
2023-03-31T22:18:14.132Z,20.90
2023-03-31T22:21:38.649Z,17.50
2023-03-31T22:24:22.361Z,16.60
2023-03-31T22:27:31.668Z,18.30
2023-03-31T22:30:21.681Z,18.40
2023-03-31T22:33:16.884Z,20.70
2023-03-31T22:36:20.192Z,21.10
2023-03-31T22:39:21.723Z,20.30
2023-03-31T22:42:16.394Z,19.10
2023-03-31T22:45:13.784Z,19.20
2023-03-31T22:48:33.068Z,20.70
2023-03-31T22:51:49.266Z,19.80
2023-03-31T22:54:58.452Z,18.70
2023-03-31T22:58:07.494Z,20.50
2023-03-31T23:01:28.566Z,20.80
2023-03-31T23:04:17.426Z,22.20
2023-03-31T23:07:24.516Z,19.50
2023-03-31T23:10:32.415Z,19.00
2023-03-31T23:13:39.384Z,19.80
2023-03-31T23:16:31.185Z,21.80
2023-03-31T23:19:37.549Z,18.60
2023-03-31T23:22:25.587Z,20.80
2023-03-31T23:25:31.181Z,21.20
2023-03-31T23:28:37.188Z,16.30
2023-03-31T23:31:33.243Z,20.00
2023-03-31T23:34:36.827Z,18.00
2023-03-31T23:37:30.082Z,17.30
2023-03-31T23:40:18.642Z,12.90
2023-03-31T23:43:21.900Z,15.50
2023-03-31T23:46:46.168Z,12.50
2023-03-31T23:49:30.569Z,14.50
2023-03-31T23:52:17.041Z,13.30
2023-03-31T23:55:00.438Z,13.90
2023-03-31T23:57:53.810Z,17.00
